地図

経路データ

SID SEASON NUMBER BASIN SUBBASIN NAME ISO_TIME NATURE LAT LON WMO_WIND WMO_PRES WMO_AGENCY TRACK_TYPE DIST2LAND LANDFALL IFLAG USA_AGENCY USA_ATCF_ID USA_LAT USA_LON USA_RECORD USA_STATUS USA_WIND USA_PRES USA_SSHS USA_R34_NE USA_R34_SE USA_R34_SW USA_R34_NW USA_R50_NE USA_R50_SE USA_R50_SW USA_R50_NW USA_R64_NE USA_R64_SE USA_R64_SW USA_R64_NW USA_POCI USA_ROCI USA_RMW USA_EYE TOKYO_LAT TOKYO_LON TOKYO_GRADE TOKYO_WIND TOKYO_PRES TOKYO_R50_DIR TOKYO_R50_LONG TOKYO_R50_SHORT TOKYO_R30_DIR TOKYO_R30_LONG TOKYO_R30_SHORT TOKYO_LAND CMA_LAT CMA_LON CMA_CAT CMA_WIND CMA_PRES HKO_LAT HKO_LON HKO_CAT HKO_WIND HKO_PRES NEWDELHI_LAT NEWDELHI_LON NEWDELHI_GRADE NEWDELHI_WIND NEWDELHI_PRES NEWDELHI_CI NEWDELHI_DP NEWDELHI_POCI REUNION_LAT REUNION_LON REUNION_TYPE REUNION_WIND REUNION_PRES REUNION_TNUM REUNION_CI REUNION_RMW REUNION_R34_NE REUNION_R34_SE REUNION_R34_SW REUNION_R34_NW REUNION_R50_NE REUNION_R50_SE REUNION_R50_SW REUNION_R50_NW REUNION_R64_NE REUNION_R64_SE REUNION_R64_SW REUNION_R64_NW BOM_LAT BOM_LON BOM_TYPE BOM_WIND BOM_PRES BOM_TNUM BOM_CI BOM_RMW BOM_R34_NE BOM_R34_SE BOM_R34_SW BOM_R34_NW BOM_R50_NE BOM_R50_SE BOM_R50_SW BOM_R50_NW BOM_R64_NE BOM_R64_SE BOM_R64_SW BOM_R64_NW BOM_ROCI BOM_POCI BOM_EYE BOM_POS_METHOD BOM_PRES_METHOD NADI_LAT NADI_LON NADI_CAT NADI_WIND NADI_PRES WELLINGTON_LAT WELLINGTON_LON WELLINGTON_WIND WELLINGTON_PRES DS824_LAT DS824_LON DS824_STAGE DS824_WIND DS824_PRES TD9636_LAT TD9636_LON TD9636_STAGE TD9636_WIND TD9636_PRES TD9635_LAT TD9635_LON TD9635_WIND TD9635_PRES TD9635_ROCI NEUMANN_LAT NEUMANN_LON NEUMANN_CLASS NEUMANN_WIND NEUMANN_PRES MLC_LAT MLC_LON MLC_CLASS MLC_WIND MLC_PRES USA_GUST BOM_GUST BOM_GUST_PER REUNION_GUST REUNION_GUST_PER USA_SEAHGT USA_SEARAD_NE USA_SEARAD_SE USA_SEARAD_SW USA_SEARAD_NW STORM_SPEED STORM_DIR
1937032S14108 1937 5 SI WA NOT_NAMED 1937-02-01 06:00:00 NR -13.5000 108.400 main 638 638 _____O________ -1 -13.5000 108.400 99 9.90000 5 151
1937032S14108 1937 5 SI WA NOT_NAMED 1937-02-01 09:00:00 NR -13.7305 108.528 main 660 660 _____P________ -1 -13.7305 108.528 99 5 151
1937032S14108 1937 5 SI WA NOT_NAMED 1937-02-01 12:00:00 NR -13.9545 108.654 main 685 685 _____P________ -1 -13.9545 108.654 99 5 151
1937032S14108 1937 5 SI WA NOT_NAMED 1937-02-01 15:00:00 NR -14.1656 108.778 main 703 703 _____P________ -1 -14.1656 108.778 99 5 150
1937032S14108 1937 5 SI WA NOT_NAMED 1937-02-01 18:00:00 NR -14.3573 108.897 main 721 718 _____P________ -1 -14.3573 108.897 99 4 147
1937032S14108 1937 5 SI WA NOT_NAMED 1937-02-01 21:00:00 NR -14.5231 109.011 main 729 729 _____P________ -1 -14.5231 109.011 99 4 145
1937032S14108 1937 5 SI WA NOT_NAMED 1937-02-02 00:00:00 NR -14.6565 109.117 main 748 746 _____P________ -1 -14.6565 109.117 99 3 139
1937032S14108 1937 5 SI WA NOT_NAMED 1937-02-02 03:00:00 NR -14.7509 109.214 main 757 754 _____P________ -1 -14.7509 109.214 99 2 129
1937032S14108 1937 5 SI WA NOT_NAMED 1937-02-02 06:00:00 NR -14.8000 109.300 main 754 752 _____O________ -1 -14.8000 109.300 99 9.90000 2 109
1937032S14108 1937 5 SI WA NOT_NAMED 1937-02-02 09:00:00 NR -14.8045 109.375 main 752 752 _____P________ -1 -14.8045 109.375 99 1 88
1937032S14108 1937 5 SI WA NOT_NAMED 1937-02-02 12:00:00 NR -14.7943 109.441 main 752 750 _____P________ -1 -14.7943 109.441 99 1 91
1937032S14108 1937 5 SI WA NOT_NAMED 1937-02-02 15:00:00 NR -14.8064 109.504 main 750 750 _____P________ -1 -14.8064 109.504 99 1 126
1937032S14108 1937 5 SI WA NOT_NAMED 1937-02-02 18:00:00 NR -14.8779 109.566 main 759 759 _____P________ -1 -14.8779 109.566 99 3 152
1937032S14108 1937 5 SI WA NOT_NAMED 1937-02-02 21:00:00 NR -15.0456 109.632 main 770 770 _____P________ -1 -15.0456 109.632 99 5 164
1937032S14108 1937 5 SI WA NOT_NAMED 1937-02-03 00:00:00 NR -15.3468 109.707 main 800 800 _____P________ -1 -15.3468 109.707 99 8 168
1937032S14108 1937 5 SI WA NOT_NAMED 1937-02-03 03:00:00 NR -15.8189 109.795 main 812 741 _____P________ -1 -15.8189 109.795 99 12 171
1937032S14108 1937 5 SI WA NOT_NAMED 1937-02-03 06:00:00 NR -16.5000 109.900 main 741 646 _____O________ -1 -16.5000 109.900 99 9.90000 17 173
1937032S14108 1937 5 SI WA NOT_NAMED 1937-02-03 09:00:00 NR -17.5244 110.024 main 646 533 _____P________ -1 -17.5244 110.024 99 23 174
1937032S14108 1937 5 SI WA NOT_NAMED 1937-02-03 12:00:00 NR -18.7642 110.166 main 526 433 _____P________ -1 -18.7642 110.166 99 27 174
1937032S14108 1937 5 SI WA NOT_NAMED 1937-02-03 15:00:00 NR -20.1747 110.325 main 428 338 _____P________ -1 -20.1747 110.325 99 30 174
1937032S14108 1937 5 SI WA NOT_NAMED 1937-02-03 18:00:00 NR -21.7103 110.502 main 334 295 _____P________ -1 -21.7103 110.502 99 32 174
1937032S14108 1937 5 SI WA NOT_NAMED 1937-02-03 21:00:00 NR -23.3256 110.697 main 292 253 _____P________ -1 -23.3256 110.697 99 33 173
1937032S14108 1937 5 SI WA NOT_NAMED 1937-02-04 00:00:00 NR -24.9752 110.912 main 261 219 _____P________ -1 -24.9752 110.912 99 33 173
1937032S14108 1937 5 SI WA NOT_NAMED 1937-02-04 03:00:00 NR -26.6145 111.146 main 221 213 _____P________ -1 -26.6145 111.146 99 33 172
1937032S14108 1937 5 SI WA NOT_NAMED 1937-02-04 06:00:00 NR -28.2000 111.400 main 268 266 _____O________ -1 -28.2000 111.400 99 9.90000 32 171
1937032S14108 1937 5 SI WA NOT_NAMED 1937-02-04 09:00:00 NR -29.7373 111.708 main 298 297 _____P________ -1 -29.7373 111.708 99 31 170
1937032S14108 1937 5 SI WA NOT_NAMED 1937-02-04 12:00:00 NR -31.2723 112.048 main 308 261 _____P________ -1 -31.2723 112.048 99 31 169
1937032S14108 1937 5 SI WA NOT_NAMED 1937-02-04 15:00:00 NR -32.7728 112.409 main 257 202 _____P________ -1 -32.7728 112.409 99 30 168
1937032S14108 1937 5 SI WA NOT_NAMED 1937-02-04 18:00:00 NR -34.2062 112.782 main 202 197 _____P________ -1 -34.2062 112.782 99 28 167
1937032S14108 1937 5 SI WA NOT_NAMED 1937-02-04 21:00:00 NR -35.5390 113.152 main 211 211 _____P________ -1 -35.5390 113.152 99 26 167
1937032S14108 1937 5 SI WA NOT_NAMED 1937-02-05 00:00:00 NR -36.7378 113.506 main 294 294 _____P________ -1 -36.7378 113.506 99 23 166
1937032S14108 1937 5 SI WA NOT_NAMED 1937-02-05 03:00:00 NR -37.7692 113.828 main 387 387 _____P________ -1 -37.7692 113.828 99 19 166
1937032S14108 1937 5 SI WA NOT_NAMED 1937-02-05 06:00:00 NR -38.6000 114.100 main 448 448 _____O________ -1 -38.6000 114.100 99 9.90000 14 166
1937032S14108 1937 5 SI WA NOT_NAMED 1937-02-05 09:00:00 NR -39.1488 114.274 main 489 489 _____P________ -1 -39.1488 114.274 99 9 166
1937032S14108 1937 5 SI WA NOT_NAMED 1937-02-05 12:00:00 NR -39.4977 114.393 main 527 527 _____P________ -1 -39.4977 114.393 99 6 165
1937032S14108 1937 5 SI WA NOT_NAMED 1937-02-05 15:00:00 NR -39.6830 114.466 main 544 544 _____P________ -1 -39.6830 114.466 99 3 159
1937032S14108 1937 5 SI WA NOT_NAMED 1937-02-05 18:00:00 NR -39.7405 114.502 main 544 544 _____P________ -1 -39.7405 114.502 99 0 125
1937032S14108 1937 5 SI WA NOT_NAMED 1937-02-05 21:00:00 NR -39.7056 114.514 main 544 534 _____P________ -1 -39.7056 114.514 99 1 0
1937032S14108 1937 5 SI WA NOT_NAMED 1937-02-06 00:00:00 NR -39.6137 114.510 main 534 523 _____P________ -1 -39.6137 114.510 99 2 0
1937032S14108 1937 5 SI WA NOT_NAMED 1937-02-06 03:00:00 NR -39.5000 114.502 main 523 513 _____P________ -1 -39.5000 114.502 99 2 0
1937032S14108 1937 5 SI WA NOT_NAMED 1937-02-06 06:00:00 NR -39.4000 114.500 main 513 503 _____O________ -1 -39.4000 114.500 99 9.90000 2 5
1937032S14108 1937 5 SI WA NOT_NAMED 1937-02-06 09:00:00 NR -39.3423 114.513 main 503 503 _____P________ -1 -39.3423 114.513 99 1 24
1937032S14108 1937 5 SI WA NOT_NAMED 1937-02-06 12:00:00 NR -39.3277 114.540 main 503 500 _____P________ -1 -39.3277 114.540 99 1 98
1937032S14108 1937 5 SI WA NOT_NAMED 1937-02-06 15:00:00 NR -39.3501 114.581 main 510 510 _____P________ -1 -39.3501 114.581 99 1 136
1937032S14108 1937 5 SI WA NOT_NAMED 1937-02-06 18:00:00 NR -39.4032 114.632 main 510 507 _____P________ -1 -39.4032 114.632 99 2 146
1937032S14108 1937 5 SI WA NOT_NAMED 1937-02-06 21:00:00 NR -39.4810 114.691 main 517 517 _____P________ -1 -39.4810 114.691 99 2 152
1937032S14108 1937 5 SI WA NOT_NAMED 1937-02-07 00:00:00 NR -39.5771 114.757 main 525 525 _____P________ -1 -39.5771 114.757 99 2 152
1937032S14108 1937 5 SI WA NOT_NAMED 1937-02-07 03:00:00 NR -39.6855 114.827 main 536 533 _____P________ -1 -39.6855 114.827 99 2 153
1937032S14108 1937 5 SI WA NOT_NAMED 1937-02-07 06:00:00 NR -39.8000 114.900 main 544 _____O________ -1 -39.8000 114.900 99 9.90000 3 156

IBTrACS Databaseについて

本データベースは、米国NOAAが公開する1842年以降の世界の熱帯低気圧のベストトラックデータアーカイブInternational Best Track Archive for Climate Stewardship (IBTrACS)を、ウェブで閲覧しやすい形式に変換したものです。

最終更新日:2021-12-01